Time;durP1;ratioP1;P1;durP2;ratioP2;P2;SDS_P1;SDS_P2;PMS_P1;PMS_P2;Temp;Humidity;BMP_temperature;BMP_pressure;BME280_temperature;BME280_humidity;BME280_pressure;Samples;Min_cycle;Max_cycle;Signal;HPM_P1;HPM_P2
2023/04/14 00:00:32;;;;;;;2.73;1.80;;;16.80;57.70;17.80;100054.00;;;;5030905;28;20198;-57
2023/04/14 00:02:59;;;;;;;1.93;1.70;;;16.80;57.80;17.80;100063.00;;;;5030673;28;20178;-58
2023/04/14 00:05:29;;;;;;;2.10;1.90;;;16.80;57.80;17.70;100058.00;;;;5030725;28;20214;-58
2023/04/14 00:07:55;;;;;;;2.40;1.90;;;16.80;57.70;17.70;100057.00;;;;5029306;28;20187;-58
2023/04/14 00:10:21;;;;;;;1.80;1.60;;;16.80;57.70;17.70;100054.00;;;;5030640;28;20176;-58
2023/04/14 00:12:46;;;;;;;2.40;1.90;;;16.80;57.70;17.70;100057.00;;;;5040321;28;20237;-58
2023/04/14 00:15:12;;;;;;;3.73;2.10;;;16.70;57.60;17.70;100053.00;;;;5040613;28;20203;-59
2023/04/14 00:17:38;;;;;;;2.07;1.87;;;16.80;57.70;17.70;100057.00;;;;5033655;28;20188;-58
2023/04/14 00:20:04;;;;;;;2.40;1.90;;;16.70;57.70;17.70;100060.00;;;;5032115;28;20175;-59
2023/04/14 00:22:30;;;;;;;2.40;1.90;;;16.70;57.60;17.60;100068.00;;;;5032895;28;20593;-58
2023/04/14 00:24:56;;;;;;;2.60;1.90;;;16.70;57.60;17.60;100076.00;;;;5032082;28;20194;-59
2023/04/14 00:27:22;;;;;;;2.37;1.80;;;16.70;57.60;17.60;100069.00;;;;5040446;28;20192;-58
2023/04/14 00:29:48;;;;;;;2.50;1.80;;;16.70;57.60;17.60;100077.00;;;;5037323;28;20179;-58
2023/04/14 00:32:15;;;;;;;3.10;2.00;;;16.60;57.60;17.60;100075.00;;;;5030492;28;20213;-58
2023/04/14 00:34:41;;;;;;;2.50;2.00;;;16.60;57.60;17.60;100078.00;;;;5030375;28;20179;-59
2023/04/14 00:37:07;;;;;;;1.87;1.70;;;16.60;57.60;17.60;100064.00;;;;5030122;28;20226;-58
2023/04/14 00:39:33;;;;;;;2.20;1.77;;;16.60;57.60;17.50;100075.00;;;;5030858;28;20641;-58
2023/04/14 00:42:01;;;;;;;3.03;2.00;;;16.60;57.60;17.50;100082.00;;;;5030449;28;20190;-58
2023/04/14 00:44:26;;;;;;;2.20;1.83;;;16.60;57.70;17.50;100080.00;;;;5028416;28;20233;-58
2023/04/14 00:46:53;;;;;;;2.87;1.90;;;16.60;57.60;17.50;100084.00;;;;5029815;28;20281;-60
2023/04/14 00:49:19;;;;;;;2.10;1.67;;;16.60;57.60;17.50;100082.00;;;;5028425;28;20319;-58
2023/04/14 00:51:44;;;;;;;2.30;2.00;;;16.50;57.50;17.40;100087.00;;;;5028409;28;20761;-58
2023/04/14 00:54:10;;;;;;;2.07;1.80;;;16.50;57.50;17.40;100106.00;;;;5028011;28;20475;-58
2023/04/14 00:56:36;;;;;;;1.93;1.70;;;16.50;57.50;17.40;100107.00;;;;5028072;28;20206;-58
2023/04/14 00:59:02;;;;;;;2.33;1.77;;;16.50;58.20;17.40;100101.00;;;;5028372;28;20808;-58
2023/04/14 01:01:28;;;;;;;2.37;1.83;;;16.50;57.50;17.40;100104.00;;;;5029227;28;20277;-58
2023/04/14 01:03:55;;;;;;;2.73;1.90;;;16.50;57.50;17.10;100106.00;;;;5029520;28;20245;-59
2023/04/14 01:06:21;;;;;;;2.90;2.00;;;16.50;57.50;17.30;100108.00;;;;5028442;28;20201;-60
2023/04/14 01:08:49;;;;;;;1.93;1.80;;;16.40;57.40;17.30;100105.00;;;;5029546;28;20180;-59
2023/04/14 01:11:18;;;;;;;1.90;1.73;;;16.40;57.50;17.30;100103.00;;;;5029639;28;20187;-59
2023/04/14 01:13:54;;;;;;;2.60;1.97;;;16.40;57.40;17.30;100108.00;;;;5029409;28;20274;-58
2023/04/14 01:16:33;;;;;;;2.17;1.67;;;16.40;58.00;17.30;100105.00;;;;5027852;28;20206;-58
2023/04/14 01:19:24;;;;;;;2.30;1.70;;;16.40;57.50;17.20;100118.00;;;;5011765;28;20178;-58
2023/04/14 01:21:55;;;;;;;1.93;1.70;;;16.40;57.50;17.20;100112.00;;;;5029186;28;20183;-57
2023/04/14 01:24:41;;;;;;;1.83;1.70;;;16.40;57.50;17.20;100046.00;;;;5027505;28;20650;-58
2023/04/14 01:27:34;;;;;;;2.10;1.90;;;16.30;57.30;17.20;100092.00;;;;5029070;28;20210;-58
2023/04/14 01:30:09;;;;;;;2.57;1.90;;;16.30;57.30;17.20;100112.00;;;;5027972;28;20163;-58
2023/04/14 01:32:35;;;;;;;2.10;1.77;;;16.30;57.30;17.10;100104.00;;;;5011308;28;20206;-58
2023/04/14 01:35:16;;;;;;;1.97;1.67;;;16.30;57.30;17.10;100125.00;;;;5020408;28;20226;-58
2023/04/14 01:37:48;;;;;;;2.03;1.80;;;16.30;57.30;17.10;100113.00;;;;5005801;28;20191;-57
2023/04/14 01:40:16;;;;;;;2.03;1.80;;;16.20;57.20;17.10;100115.00;;;;5027983;28;20194;-58
2023/04/14 01:42:46;;;;;;;1.53;1.43;;;16.30;57.30;17.10;100128.00;;;;5027737;28;20310;-58
2023/04/14 01:45:18;;;;;;;2.57;1.97;;;16.20;57.30;17.00;100128.00;;;;5027697;28;20205;-59
2023/04/14 01:47:44;;;;;;;1.93;1.67;;;16.20;57.30;17.00;100127.00;;;;5027828;28;20261;-58
2023/04/14 01:50:10;;;;;;;2.13;1.83;;;16.20;57.90;17.00;100109.00;;;;5027696;28;20248;-58
2023/04/14 01:52:36;;;;;;;1.70;1.60;;;16.10;57.20;17.00;100121.00;;;;5033991;28;20186;-57
2023/04/14 01:55:04;;;;;;;2.40;1.80;;;16.20;57.20;17.00;100124.00;;;;5035175;28;20202;-58
2023/04/14 01:57:30;;;;;;;1.67;1.57;;;16.10;57.10;17.00;100127.00;;;;5018341;28;20562;-58
2023/04/14 01:59:56;;;;;;;1.70;1.60;;;16.10;57.10;17.00;100120.00;;;;5027951;28;20175;-58
2023/04/14 02:02:22;;;;;;;1.93;1.70;;;16.10;57.10;16.90;100127.00;;;;5027464;28;20280;-58
2023/04/14 02:04:48;;;;;;;2.80;1.70;;;16.10;57.10;16.90;100136.00;;;;5027879;28;20238;-58
2023/04/14 02:07:13;;;;;;;2.00;1.80;;;16.10;57.10;16.90;100127.00;;;;5027768;28;20279;-58
2023/04/14 02:09:39;;;;;;;1.83;1.70;;;16.10;57.10;16.90;100121.00;;;;5023813;28;20183;-57
2023/04/14 02:12:05;;;;;;;2.00;1.80;;;16.00;57.00;16.90;100130.00;;;;5034288;28;20190;-57
2023/04/14 02:14:31;;;;;;;2.20;1.70;;;16.00;57.00;16.90;100110.00;;;;5037514;28;20179;-58
2023/04/14 02:16:57;;;;;;;1.77;1.63;;;16.00;57.10;16.80;100122.00;;;;5030861;28;20581;-58
2023/04/14 02:19:23;;;;;;;1.67;1.57;;;16.00;57.10;16.80;100097.00;;;;5032905;28;20601;-57
2023/04/14 02:21:49;;;;;;;1.83;1.70;;;16.00;57.00;16.80;100130.00;;;;5033619;28;20178;-57
2023/04/14 02:24:15;;;;;;;2.10;1.83;;;16.00;57.00;16.80;100135.00;;;;5033070;28;20257;-58
2023/04/14 02:26:52;;;;;;;1.80;1.60;;;16.00;57.10;16.80;100144.00;;;;5043217;28;20206;-57
2023/04/14 02:29:20;;;;;;;2.00;1.80;;;16.00;57.10;16.80;100139.00;;;;5035583;28;20712;-57
2023/04/14 02:32:01;;;;;;;2.87;1.80;;;15.90;57.00;16.80;100139.00;;;;5031913;28;20178;-57
2023/04/14 02:34:29;;;;;;;1.70;1.60;;;16.00;57.00;16.70;100120.00;;;;5031144;28;20179;-57
2023/04/14 02:36:56;;;;;;;2.10;1.90;;;15.90;56.90;16.70;100141.00;;;;5030865;28;20210;-58
2023/04/14 02:39:36;;;;;;;2.77;1.63;;;15.90;57.00;16.70;100134.00;;;;5031056;28;20633;-57
2023/04/14 02:42:13;;;;;;;2.23;1.70;;;15.90;56.90;16.70;100134.00;;;;5031244;28;20212;-58
2023/04/14 02:44:50;;;;;;;2.03;1.83;;;15.90;56.90;16.60;100134.00;;;;5025949;28;20170;-58
2023/04/14 02:47:24;;;;;;;1.87;1.60;;;15.90;57.00;16.70;100117.00;;;;5032694;28;20645;-57
2023/04/14 02:49:50;;;;;;;2.20;1.70;;;15.80;57.00;16.70;100111.00;;;;5031654;28;20726;-58
2023/04/14 02:52:16;;;;;;;1.63;1.53;;;15.80;57.00;16.60;100135.00;;;;5030889;28;20175;-58
2023/04/14 02:54:42;;;;;;;1.87;1.67;;;15.80;57.10;16.60;100130.00;;;;5030659;28;20245;-58
2023/04/14 02:57:08;;;;;;;2.30;1.80;;;15.80;57.10;16.60;100134.00;;;;5030415;28;20199;-57
2023/04/14 02:59:33;;;;;;;2.10;1.67;;;15.80;57.00;16.60;100144.00;;;;5022393;28;20175;-57
2023/04/14 03:02:01;;;;;;;2.37;1.90;;;15.80;57.10;16.60;100140.00;;;;5030637;28;20716;-58
2023/04/14 03:04:37;;;;;;;2.00;1.80;;;15.80;57.10;16.50;100140.00;;;;5030541;28;20660;-57
2023/04/14 03:07:06;;;;;;;1.60;1.50;;;15.70;57.00;16.50;100133.00;;;;5032211;28;20637;-60
2023/04/14 03:09:32;;;;;;;3.70;1.87;;;15.70;57.00;16.50;100153.00;;;;5030564;28;20289;-57
2023/04/14 03:11:58;;;;;;;1.83;1.70;;;15.70;57.00;16.50;100149.00;;;;5030382;28;20171;-58
2023/04/14 03:14:24;;;;;;;1.90;1.70;;;15.70;57.00;16.50;100151.00;;;;5030387;28;20187;-58
2023/04/14 03:16:50;;;;;;;2.33;1.77;;;15.70;57.00;16.50;100144.00;;;;5030465;28;20210;-57
2023/04/14 03:19:23;;;;;;;2.40;1.90;;;15.60;56.90;16.40;100144.00;;;;5031634;28;20217;-58
2023/04/14 03:21:49;;;;;;;2.53;1.80;;;15.60;57.00;16.50;100142.00;;;;5030414;28;20212;-57
2023/04/14 03:24:23;;;;;;;2.30;1.70;;;15.70;57.50;16.50;100141.00;;;;5029843;28;20190;-57
2023/04/14 03:26:50;;;;;;;2.03;1.83;;;15.60;57.80;16.50;100134.00;;;;5029852;28;20748;-57
2023/04/14 03:29:18;;;;;;;2.10;1.80;;;15.70;57.50;16.50;100143.00;;;;5021806;28;20179;-57
2023/04/14 03:31:44;;;;;;;1.90;1.60;;;15.70;57.50;16.50;100153.00;;;;5030166;28;20179;-58
2023/04/14 03:34:10;;;;;;;2.20;1.90;;;15.60;57.30;16.40;100152.00;;;;5029566;28;20808;-57
2023/04/14 03:36:36;;;;;;;3.80;1.90;;;15.60;57.60;16.40;100143.00;;;;5029790;28;20385;-57
2023/04/14 03:39:02;;;;;;;1.93;1.60;;;15.60;57.80;16.40;100142.00;;;;5029780;28;20175;-57
2023/04/14 03:41:28;;;;;;;2.93;1.80;;;15.60;57.90;16.30;100144.00;;;;5029942;28;20271;-58
2023/04/14 03:43:55;;;;;;;2.53;1.83;;;15.60;58.10;16.30;100136.00;;;;5012837;28;20262;-57
2023/04/14 03:46:25;;;;;;;4.43;1.90;;;15.60;58.10;16.30;100145.00;;;;5030944;28;20297;-57
2023/04/14 03:48:51;;;;;;;1.67;1.57;;;15.60;58.70;16.30;100145.00;;;;5015313;28;20181;-58
2023/04/14 03:51:17;;;;;;;3.60;1.90;;;15.60;58.00;16.30;100155.00;;;;5031360;28;20175;-58
2023/04/14 03:53:44;;;;;;;1.80;1.70;;;15.50;58.00;16.30;100162.00;;;;5030934;28;20174;-58
2023/04/14 03:56:12;;;;;;;1.67;1.57;;;15.50;58.00;16.30;100146.00;;;;5031027;28;20285;-58
2023/04/14 03:58:38;;;;;;;3.53;1.53;;;15.50;58.00;16.20;100160.00;;;;5031505;28;20169;-58
2023/04/14 04:01:03;;;;;;;2.13;1.60;;;15.40;57.90;16.20;100162.00;;;;5031140;28;20179;-58
2023/04/14 04:03:29;;;;;;;1.63;1.47;;;15.50;58.00;16.20;100159.00;;;;5030742;28;20767;-58
2023/04/14 04:05:55;;;;;;;4.57;2.00;;;15.50;58.00;16.20;100151.00;;;;5030758;28;20936;-58
2023/04/14 04:08:22;;;;;;;2.00;1.60;;;15.40;57.90;16.20;100146.00;;;;5014823;28;20198;-59
2023/04/14 04:10:48;;;;;;;2.50;1.70;;;15.40;58.00;16.20;100156.00;;;;5041142;28;20174;-57
2023/04/14 04:13:17;;;;;;;3.80;1.67;;;15.40;58.00;16.20;100139.00;;;;5022715;28;20280;-58
2023/04/14 04:15:44;;;;;;;6.97;1.70;;;15.40;58.20;16.20;100163.00;;;;5026808;28;20575;-58
2023/04/14 04:18:10;;;;;;;1.63;1.50;;;15.40;58.30;16.20;100175.00;;;;4999440;28;20171;-58
2023/04/14 04:20:39;;;;;;;2.80;1.80;;;15.40;58.40;16.10;100176.00;;;;5012576;28;20238;-58
2023/04/14 04:23:06;;;;;;;4.57;1.80;;;15.40;58.40;16.10;100176.00;;;;4996124;28;20557;-58
2023/04/14 04:25:34;;;;;;;3.20;1.67;;;15.40;58.40;16.10;100171.00;;;;5025518;28;20211;-58
2023/04/14 04:27:59;;;;;;;3.03;1.67;;;15.30;58.30;16.10;100162.00;;;;5032996;28;20175;-58
2023/04/14 04:30:26;;;;;;;3.90;1.73;;;15.30;58.30;16.10;100162.00;;;;5029999;28;20661;-58
2023/04/14 04:32:51;;;;;;;5.53;1.80;;;15.30;58.40;16.10;100166.00;;;;5029240;28;20226;-58
2023/04/14 04:35:17;;;;;;;2.60;1.50;;;15.30;58.40;16.10;100179.00;;;;5029810;28;20199;-57
2023/04/14 04:37:43;;;;;;;2.97;1.80;;;15.30;58.50;16.00;100178.00;;;;5030102;28;20549;-57
2023/04/14 04:40:09;;;;;;;4.53;1.93;;;15.30;58.70;16.00;100176.00;;;;5020996;28;20171;-58
2023/04/14 04:42:42;;;;;;;2.60;1.90;;;15.20;58.60;16.00;100174.00;;;;5030848;28;20179;-57
2023/04/14 04:45:08;;;;;;;2.83;1.60;;;15.20;58.60;16.00;100169.00;;;;5029980;28;20303;-57
2023/04/14 04:47:34;;;;;;;2.60;1.60;;;15.20;58.60;16.00;100176.00;;;;5029700;28;20604;-57
2023/04/14 04:50:00;;;;;;;2.13;1.53;;;15.30;58.60;16.00;100175.00;;;;5030756;28;20265;-57
2023/04/14 04:52:26;;;;;;;3.70;1.80;;;15.20;58.40;16.00;100177.00;;;;5030585;28;20263;-57
2023/04/14 04:54:51;;;;;;;5.53;1.93;;;15.30;58.60;16.00;100177.00;;;;5030723;28;20190;-57
2023/04/14 04:57:20;;;;;;;3.03;1.73;;;15.20;58.40;16.00;100182.00;;;;5030575;28;20203;-58
2023/04/14 04:59:46;;;;;;;2.43;1.70;;;15.30;58.40;16.00;100192.00;;;;5028741;28;20175;-58
2023/04/14 05:02:12;;;;;;;4.47;1.70;;;15.30;58.30;16.00;100171.00;;;;5030341;28;20171;-58
2023/04/14 05:04:37;;;;;;;1.50;1.40;;;15.20;58.30;16.00;100178.00;;;;5030717;28;20518;-58
2023/04/14 05:07:03;;;;;;;2.17;1.57;;;15.20;58.30;16.00;100179.00;;;;5030068;28;20228;-58
2023/04/14 05:09:29;;;;;;;1.90;1.70;;;15.20;58.30;16.00;100172.00;;;;5029011;28;20620;-57
2023/04/14 05:11:56;;;;;;;3.20;1.60;;;15.20;59.00;16.00;100182.00;;;;5030115;28;20534;-59
2023/04/14 05:14:21;;;;;;;1.70;1.50;;;15.20;58.30;15.90;100184.00;;;;5030311;28;20170;-57
2023/04/14 05:16:47;;;;;;;2.97;1.80;;;15.20;58.40;15.90;100184.00;;;;5029401;28;20202;-58
2023/04/14 05:19:13;;;;;;;1.90;1.70;;;15.20;58.40;15.90;100193.00;;;;5029107;28;20612;-57
2023/04/14 05:21:39;;;;;;;1.60;1.50;;;15.10;58.30;15.90;100193.00;;;;5030272;28;20175;-57
2023/04/14 05:24:08;;;;;;;1.60;1.50;;;15.20;58.40;15.90;100191.00;;;;5028489;28;20175;-59
2023/04/14 05:26:34;;;;;;;2.03;1.70;;;15.10;58.30;15.90;100191.00;;;;5029507;28;20616;-59
2023/04/14 05:29:00;;;;;;;3.70;1.50;;;15.10;58.30;15.80;100189.00;;;;5028922;28;20229;-59
2023/04/14 05:31:26;;;;;;;2.43;1.57;;;15.10;58.30;15.80;100178.00;;;;5029281;28;20174;-57
2023/04/14 05:33:51;;;;;;;1.67;1.57;;;15.10;58.40;15.80;100183.00;;;;5030750;28;20656;-59
2023/04/14 05:36:17;;;;;;;1.80;1.70;;;15.10;58.30;15.80;100186.00;;;;5030002;28;20577;-58
2023/04/14 05:38:43;;;;;;;1.87;1.73;;;15.10;58.40;15.80;100187.00;;;;5029750;28;20178;-57
2023/04/14 05:41:09;;;;;;;1.90;1.47;;;15.10;58.40;15.80;100185.00;;;;5028736;28;20666;-58
2023/04/14 05:43:35;;;;;;;2.47;1.60;;;15.10;58.40;15.70;100187.00;;;;5029710;28;20198;-57
2023/04/14 05:46:01;;;;;;;2.80;1.57;;;15.00;58.30;15.70;100189.00;;;;5029474;28;20186;-58
2023/04/14 05:48:29;;;;;;;1.80;1.60;;;15.00;58.40;15.70;100172.00;;;;5028138;28;20175;-58
2023/04/14 05:50:55;;;;;;;1.90;1.70;;;15.00;58.30;15.70;100194.00;;;;5028225;28;20638;-57
2023/04/14 05:53:22;;;;;;;1.63;1.50;;;15.00;58.30;15.70;100195.00;;;;5028870;28;20196;-58
2023/04/14 05:55:50;;;;;;;1.70;1.50;;;15.00;58.30;15.70;100190.00;;;;5009014;28;20697;-60
2023/04/14 05:58:16;;;;;;;1.70;1.50;;;15.00;58.40;15.70;100198.00;;;;5008973;28;20171;-57
2023/04/14 06:00:41;;;;;;;1.80;1.70;;;15.00;58.40;15.70;100197.00;;;;5030328;28;20703;-57
2023/04/14 06:03:07;;;;;;;3.47;1.70;;;15.00;58.40;15.70;100192.00;;;;5036404;28;20193;-59
2023/04/14 06:05:33;;;;;;;1.67;1.57;;;14.90;58.30;15.70;100196.00;;;;5036877;28;20268;-58
2023/04/14 06:07:58;;;;;;;1.57;1.47;;;15.00;58.40;15.60;100195.00;;;;5037464;28;20230;-58
2023/04/14 06:10:24;;;;;;;1.73;1.60;;;14.90;58.30;15.60;100195.00;;;;5039605;28;20183;-57
2023/04/14 06:12:50;;;;;;;1.60;1.50;;;14.90;58.40;15.60;100180.00;;;;5032659;28;20266;-57
2023/04/14 06:15:16;;;;;;;1.97;1.77;;;14.90;58.40;15.60;100190.00;;;;5012844;28;20206;-60
2023/04/14 06:17:42;;;;;;;1.60;1.50;;;14.90;58.40;15.60;100190.00;;;;5030288;28;20706;-57
2023/04/14 06:20:08;;;;;;;2.03;1.37;;;14.90;58.40;15.60;100190.00;;;;5030524;28;20175;-58
2023/04/14 06:22:34;;;;;;;1.50;1.40;;;14.90;58.50;15.60;100174.00;;;;5035419;28;20649;-56
2023/04/14 06:25:00;;;;;;;1.70;1.60;;;14.90;58.50;15.60;100181.00;;;;5039475;28;20175;-57
2023/04/14 06:27:26;;;;;;;1.60;1.50;;;14.90;58.50;15.60;100179.00;;;;5029972;28;20270;-57
2023/04/14 06:29:52;;;;;;;2.70;1.60;;;14.90;58.50;15.60;100186.00;;;;5029425;28;20179;-57
2023/04/14 06:32:18;;;;;;;1.43;1.33;;;14.80;58.50;15.60;100179.00;;;;5027789;28;20758;-57
2023/04/14 06:34:45;;;;;;;1.70;1.60;;;14.90;58.50;15.50;100182.00;;;;5027072;28;20195;-57
2023/04/14 06:37:10;;;;;;;1.50;1.40;;;14.80;58.50;15.50;100174.00;;;;5027690;28;20229;-57
2023/04/14 06:39:36;;;;;;;1.70;1.60;;;14.80;58.50;15.50;100181.00;;;;5029217;28;20661;-57
2023/04/14 06:42:02;;;;;;;1.50;1.40;;;14.80;58.50;15.50;100179.00;;;;5028466;28;20167;-58
2023/04/14 06:44:28;;;;;;;1.70;1.60;;;14.80;58.60;15.50;100177.00;;;;5027419;28;20190;-56
2023/04/14 06:46:54;;;;;;;2.17;1.60;;;14.80;58.60;15.50;100177.00;;;;5017532;28;20207;-57
2023/04/14 06:49:20;;;;;;;1.63;1.53;;;14.80;58.90;15.50;100180.00;;;;5027833;28;20210;-60
2023/04/14 06:51:45;;;;;;;2.60;1.33;;;14.80;58.80;15.50;100173.00;;;;5030274;28;20187;-58
2023/04/14 06:54:11;;;;;;;2.47;1.43;;;14.80;58.80;15.40;100175.00;;;;5023421;28;20309;-57
2023/04/14 06:56:37;;;;;;;1.93;1.40;;;14.80;58.90;15.50;100171.00;;;;5015511;28;20288;-58
2023/04/14 06:59:03;;;;;;;1.70;1.60;;;14.80;58.90;15.40;100178.00;;;;5025464;28;20680;-57
2023/04/14 07:01:28;;;;;;;2.33;1.53;;;14.80;58.90;15.40;100168.00;;;;5027520;28;20179;-57
2023/04/14 07:03:54;;;;;;;1.87;1.57;;;14.80;58.90;15.40;100167.00;;;;5032283;28;20241;-58
2023/04/14 07:06:20;;;;;;;1.97;1.63;;;14.70;59.00;15.40;100165.00;;;;5031975;28;20203;-57
2023/04/14 07:08:47;;;;;;;1.53;1.43;;;14.70;59.00;15.40;100161.00;;;;5033555;28;20245;-58
2023/04/14 07:11:12;;;;;;;1.50;1.40;;;14.70;59.00;15.40;100159.00;;;;5033241;28;20186;-58
2023/04/14 07:13:39;;;;;;;1.40;1.30;;;14.70;59.10;15.40;100162.00;;;;5032912;28;20341;-58
2023/04/14 07:16:06;;;;;;;2.07;1.73;;;14.70;59.10;15.40;100150.00;;;;5032646;28;20229;-57
2023/04/14 07:18:31;;;;;;;1.50;1.40;;;14.70;59.10;15.40;100151.00;;;;5032513;28;20178;-57
2023/04/14 07:20:58;;;;;;;1.60;1.50;;;14.70;59.20;15.10;100152.00;;;;5033645;28;20202;-57
2023/04/14 07:23:24;;;;;;;1.40;1.30;;;14.70;59.20;15.30;100154.00;;;;5026244;28;20183;-57
2023/04/14 07:25:57;;;;;;;3.50;1.70;;;14.70;59.40;15.30;100155.00;;;;5032550;28;20566;-56
2023/04/14 07:28:23;;;;;;;1.80;1.70;;;14.70;59.60;15.30;100160.00;;;;5030939;28;20179;-57
2023/04/14 07:30:49;;;;;;;2.33;1.63;;;14.60;59.40;15.30;100149.00;;;;5031148;28;20669;-56
2023/04/14 07:33:18;;;;;;;3.47;1.80;;;14.70;59.50;15.30;100152.00;;;;5031382;28;20179;-56
2023/04/14 07:35:45;;;;;;;2.20;1.80;;;14.70;59.90;15.30;100151.00;;;;5032105;28;20241;-56
2023/04/14 07:38:10;;;;;;;3.00;1.70;;;14.70;59.90;15.40;100146.00;;;;5030801;28;20189;-56
2023/04/14 07:40:36;;;;;;;3.90;1.70;;;14.70;59.90;15.40;100147.00;;;;5032458;28;20650;-55
2023/04/14 07:43:02;;;;;;;3.63;1.53;;;14.80;60.00;15.40;100135.00;;;;5031342;28;20181;-56
2023/04/14 07:45:28;;;;;;;2.13;1.33;;;14.80;59.90;15.50;100137.00;;;;5031789;28;20694;-55
2023/04/14 07:47:54;;;;;;;2.00;1.37;;;14.90;59.90;15.50;100127.00;;;;5030916;28;20601;-55
2023/04/14 07:50:20;;;;;;;3.97;1.60;;;14.90;59.80;15.50;100130.00;;;;5032248;28;20174;-55
2023/04/14 07:52:46;;;;;;;1.90;1.60;;;14.90;59.80;15.60;100120.00;;;;5031055;28;20639;-57
2023/04/14 07:55:12;;;;;;;8.07;2.00;;;15.00;60.00;15.60;100138.00;;;;5030605;28;20194;-55
2023/04/14 07:57:37;;;;;;;4.97;1.77;;;15.00;60.10;15.60;100131.00;;;;5031620;28;20210;-55
2023/04/14 08:00:04;;;;;;;1.60;1.50;;;15.00;60.50;15.60;100136.00;;;;5013701;28;20677;-56
2023/04/14 08:02:30;;;;;;;3.70;1.60;;;15.00;60.30;15.70;100126.00;;;;5030789;28;20179;-56
2023/04/14 08:04:56;;;;;;;2.80;1.90;;;15.10;60.50;15.70;100134.00;;;;5031975;28;20178;-55
2023/04/14 08:07:21;;;;;;;9.03;2.80;;;15.10;61.40;15.70;100130.00;;;;5030809;28;20681;-56
2023/04/14 08:09:48;;;;;;;7.27;2.70;;;15.10;60.70;15.70;100126.00;;;;5035093;28;20703;-56
2023/04/14 08:12:14;;;;;;;6.83;2.47;;;15.10;60.90;15.70;100132.00;;;;5035151;28;20190;-56
2023/04/14 08:14:40;;;;;;;10.47;3.30;;;15.10;61.10;15.70;100139.00;;;;5039168;28;20171;-56
2023/04/14 08:17:06;;;;;;;10.10;3.10;;;15.10;61.20;15.70;100138.00;;;;5023008;28;20210;-56
2023/04/14 08:19:32;;;;;;;11.73;3.37;;;15.10;61.40;15.80;100132.00;;;;5031624;28;20689;-56
2023/04/14 08:21:58;;;;;;;4.80;2.87;;;15.10;61.40;15.80;100136.00;;;;5031911;28;20252;-56
2023/04/14 08:24:24;;;;;;;7.87;3.03;;;15.10;61.50;15.80;100131.00;;;;5023188;28;20224;-56
2023/04/14 08:26:50;;;;;;;8.83;3.00;;;15.10;61.50;15.80;100130.00;;;;5043196;28;20214;-57
2023/04/14 08:29:15;;;;;;;7.13;3.10;;;15.10;61.50;15.80;100131.00;;;;5047310;28;20194;-57
2023/04/14 08:31:41;;;;;;;13.00;3.30;;;15.10;61.50;15.80;100133.00;;;;5032245;28;20175;-57
2023/04/14 08:34:07;;;;;;;6.50;3.00;;;15.10;61.50;15.80;100133.00;;;;5032281;28;20569;-57
2023/04/14 08:36:33;;;;;;;6.73;3.00;;;15.10;61.50;15.80;100120.00;;;;5032067;28;20202;-58
2023/04/14 08:39:00;;;;;;;7.00;3.17;;;15.10;61.50;15.80;100123.00;;;;5032004;28;20282;-56
2023/04/14 08:41:26;;;;;;;6.77;2.73;;;15.10;61.60;15.80;100130.00;;;;5030574;28;20240;-57
2023/04/14 08:43:51;;;;;;;8.63;3.27;;;15.10;61.50;15.80;100133.00;;;;5032428;28;20646;-57
2023/04/14 08:46:17;;;;;;;6.77;2.77;;;15.10;61.50;15.80;100111.00;;;;5030903;28;20198;-57
2023/04/14 08:48:45;;;;;;;7.47;3.10;;;15.20;61.70;15.90;100131.00;;;;5030807;28;20183;-57
2023/04/14 08:51:32;;;;;;;8.50;2.93;;;15.20;61.70;15.90;100129.00;;;;5032174;28;20171;-57
2023/04/14 08:53:58;;;;;;;6.50;2.83;;;15.20;61.70;15.90;100120.00;;;;5024401;28;20183;-56
2023/04/14 08:56:26;;;;;;;6.50;2.80;;;15.20;61.70;15.90;100124.00;;;;5030558;28;20559;-56
2023/04/14 08:58:52;;;;;;;7.23;2.80;;;15.20;61.80;15.90;100118.00;;;;5006148;28;20182;-57
2023/04/14 09:01:18;;;;;;;4.07;2.57;;;15.20;61.80;15.90;100119.00;;;;5030826;28;20182;-56
2023/04/14 09:03:44;;;;;;;8.73;2.73;;;15.20;62.00;15.90;100123.00;;;;5030661;28;20630;-57
2023/04/14 09:06:09;;;;;;;6.87;2.80;;;15.20;62.00;15.90;100131.00;;;;5031729;28;20214;-57
2023/04/14 09:08:35;;;;;;;4.90;2.60;;;15.20;62.10;15.90;100105.00;;;;5030828;28;20179;-56
2023/04/14 09:11:02;;;;;;;5.20;2.83;;;15.20;62.00;15.90;100112.00;;;;5025310;28;20176;-57
2023/04/14 09:13:28;;;;;;;5.53;2.60;;;15.20;62.00;15.90;100108.00;;;;5030377;28;20656;-56
2023/04/14 09:15:54;;;;;;;4.73;2.80;;;15.20;62.00;15.90;100111.00;;;;5040634;28;20207;-57
2023/04/14 09:18:21;;;;;;;4.97;2.50;;;15.20;62.00;15.90;100103.00;;;;5033996;28;20179;-57
2023/04/14 09:20:46;;;;;;;6.03;2.70;;;15.20;62.10;15.90;100110.00;;;;5027584;28;20190;-57
2023/04/14 09:23:12;;;;;;;4.80;2.67;;;15.30;62.30;16.00;100099.00;;;;5028146;28;20175;-57
2023/04/14 09:25:39;;;;;;;4.83;2.50;;;15.20;62.10;16.00;100098.00;;;;5013475;28;20693;-57
2023/04/14 09:28:04;;;;;;;3.73;2.30;;;15.20;62.20;16.00;100099.00;;;;5031576;28;20401;-57
2023/04/14 09:30:31;;;;;;;4.60;2.50;;;15.30;62.30;16.00;100101.00;;;;5031252;28;20642;-57
2023/04/14 09:32:56;;;;;;;4.40;2.50;;;15.30;62.30;16.00;100097.00;;;;5046731;28;20175;-57
2023/04/14 09:35:25;;;;;;;4.87;2.63;;;15.30;62.40;16.00;100093.00;;;;5031075;28;20697;-57
2023/04/14 09:37:51;;;;;;;4.83;2.30;;;15.30;62.40;16.00;100101.00;;;;5030036;28;20233;-57
2023/04/14 09:40:29;;;;;;;5.67;2.60;;;15.30;62.40;16.00;100097.00;;;;5023214;28;20183;-57
2023/04/14 09:42:55;;;;;;;5.47;2.67;;;15.30;62.50;16.00;100094.00;;;;5031281;28;20217;-57
2023/04/14 09:45:21;;;;;;;4.73;2.57;;;15.40;62.70;16.00;100099.00;;;;5029784;28;20629;-56
2023/04/14 09:47:47;;;;;;;4.37;2.37;;;15.40;62.70;16.00;100092.00;;;;5024546;28;20182;-56
2023/04/14 09:50:13;;;;;;;3.63;2.37;;;15.40;62.70;16.10;100093.00;;;;5031287;28;20639;-56
2023/04/14 09:52:40;;;;;;;3.87;2.23;;;15.40;62.70;16.10;100099.00;;;;5031291;28;20263;-56
2023/04/14 09:55:11;;;;;;;2.77;2.23;;;15.40;62.80;16.10;100094.00;;;;5031532;28;20698;-56
2023/04/14 09:57:37;;;;;;;3.90;2.50;;;15.40;62.80;16.10;100090.00;;;;5029902;28;20274;-57
2023/04/14 10:00:15;;;;;;;4.07;2.33;;;15.40;62.70;16.10;100087.00;;;;5029313;28;20171;-57
2023/04/14 10:02:49;;;;;;;3.53;2.27;;;15.50;62.90;16.10;100084.00;;;;5030659;28;20791;-56
2023/04/14 10:05:20;;;;;;;4.93;2.40;;;15.40;62.90;16.10;100073.00;;;;5029356;28;20259;-57
2023/04/14 10:07:46;;;;;;;3.97;2.30;;;15.40;63.10;16.10;100064.00;;;;5036438;28;20233;-58
2023/04/14 10:10:12;;;;;;;4.93;2.43;;;15.40;63.10;16.10;100078.00;;;;5029448;28;20182;-57
2023/04/14 10:12:44;;;;;;;3.63;2.40;;;15.40;63.10;16.10;100070.00;;;;5036075;28;20178;-58
2023/04/14 10:15:11;;;;;;;3.47;2.20;;;15.40;63.20;16.20;100063.00;;;;5037463;28;20201;-58
2023/04/14 10:17:38;;;;;;;2.57;2.10;;;15.50;63.60;16.20;100061.00;;;;5039114;28;20226;-58
2023/04/14 10:20:05;;;;;;;3.80;2.37;;;15.50;63.60;16.20;100056.00;;;;5026953;28;20659;-57
2023/04/14 10:22:31;;;;;;;4.40;2.37;;;15.50;63.70;16.20;100052.00;;;;5029729;28;20266;-58
2023/04/14 10:25:00;;;;;;;3.37;2.20;;;15.50;63.70;16.20;100046.00;;;;5030847;28;20209;-57
2023/04/14 10:27:27;;;;;;;2.87;2.27;;;15.50;63.90;16.20;100034.00;;;;5030504;28;20546;-57
2023/04/14 10:29:53;;;;;;;3.87;2.23;;;15.50;64.00;16.20;100047.00;;;;5032950;28;20194;-57
2023/04/14 10:32:19;;;;;;;2.93;2.13;;;15.50;64.00;16.20;100032.00;;;;5044801;28;20190;-57
2023/04/14 10:35:08;;;;;;;3.23;2.20;;;15.50;64.30;16.20;100030.00;;;;5032832;28;20179;-57
2023/04/14 10:37:34;;;;;;;3.87;2.17;;;15.50;64.40;16.20;100037.00;;;;5031578;28;20198;-56
2023/04/14 10:40:04;;;;;;;2.93;2.10;;;15.50;64.60;16.30;100034.00;;;;5033345;28;20177;-57
2023/04/14 10:42:50;;;;;;;3.47;2.10;;;15.60;64.70;16.30;100022.00;;;;5034385;28;20254;-56
2023/04/14 10:45:16;;;;;;;3.00;2.13;;;15.60;64.70;16.30;100028.00;;;;5033275;28;20218;-56
2023/04/14 10:47:42;;;;;;;3.63;2.20;;;15.60;64.90;16.30;100020.00;;;;5034639;28;20179;-57